sensor_id;sensor_type;location;lat;lon;timestamp;temperature;humidity
19567;DHT22;9930;49.240;8.548;2022-12-20T00:01:49;6.10;83.30
19567;DHT22;9930;49.240;8.548;2022-12-20T00:04:17;6.10;84.10
19567;DHT22;9930;49.240;8.548;2022-12-20T00:06:45;6.10;83.30
19567;DHT22;9930;49.240;8.548;2022-12-20T00:09:16;6.10;83.30
19567;DHT22;9930;49.240;8.548;2022-12-20T00:11:45;6.10;83.20
19567;DHT22;9930;49.240;8.548;2022-12-20T00:14:16;6.10;83.20
19567;DHT22;9930;49.240;8.548;2022-12-20T00:16:42;6.10;83.30
19567;DHT22;9930;49.240;8.548;2022-12-20T00:19:14;6.10;83.30
19567;DHT22;9930;49.240;8.548;2022-12-20T00:21:40;6.10;83.20
19567;DHT22;9930;49.240;8.548;2022-12-20T00:24:15;6.10;83.30
19567;DHT22;9930;49.240;8.548;2022-12-20T00:26:44;6.10;83.30
19567;DHT22;9930;49.240;8.548;2022-12-20T00:29:10;6.10;83.30
19567;DHT22;9930;49.240;8.548;2022-12-20T00:31:38;6.20;83.40
19567;DHT22;9930;49.240;8.548;2022-12-20T00:34:04;6.20;83.30
19567;DHT22;9930;49.240;8.548;2022-12-20T00:36:31;6.20;83.30
19567;DHT22;9930;49.240;8.548;2022-12-20T00:39:02;6.20;83.30
19567;DHT22;9930;49.240;8.548;2022-12-20T00:41:31;6.20;83.30
19567;DHT22;9930;49.240;8.548;2022-12-20T00:44:00;6.20;83.20
19567;DHT22;9930;49.240;8.548;2022-12-20T00:46:27;6.20;83.20
19567;DHT22;9930;49.240;8.548;2022-12-20T00:48:58;6.20;83.30
19567;DHT22;9930;49.240;8.548;2022-12-20T00:51:28;6.20;83.20
19567;DHT22;9930;49.240;8.548;2022-12-20T00:53:55;6.20;83.20
19567;DHT22;9930;49.240;8.548;2022-12-20T00:56:21;6.30;84.00
19567;DHT22;9930;49.240;8.548;2022-12-20T00:58:47;6.30;83.40
19567;DHT22;9930;49.240;8.548;2022-12-20T01:01:19;6.30;83.30
19567;DHT22;9930;49.240;8.548;2022-12-20T01:03:47;6.30;83.30
19567;DHT22;9930;49.240;8.548;2022-12-20T01:06:17;6.30;83.30
19567;DHT22;9930;49.240;8.548;2022-12-20T01:08:43;6.30;83.20
19567;DHT22;9930;49.240;8.548;2022-12-20T01:11:31;6.30;83.40
19567;DHT22;9930;49.240;8.548;2022-12-20T01:14:03;6.30;83.50
19567;DHT22;9930;49.240;8.548;2022-12-20T01:16:36;6.30;83.40
19567;DHT22;9930;49.240;8.548;2022-12-20T01:19:16;6.30;83.40
19567;DHT22;9930;49.240;8.548;2022-12-20T01:21:43;6.30;83.30
19567;DHT22;9930;49.240;8.548;2022-12-20T01:24:11;6.30;83.20
19567;DHT22;9930;49.240;8.548;2022-12-20T01:26:46;6.30;83.30
19567;DHT22;9930;49.240;8.548;2022-12-20T01:29:15;6.30;83.30
19567;DHT22;9930;49.240;8.548;2022-12-20T01:31:49;6.30;83.30
19567;DHT22;9930;49.240;8.548;2022-12-20T01:34:14;6.40;83.40
19567;DHT22;9930;49.240;8.548;2022-12-20T01:36:44;6.30;83.40
19567;DHT22;9930;49.240;8.548;2022-12-20T01:39:15;6.40;83.40
19567;DHT22;9930;49.240;8.548;2022-12-20T01:41:43;6.40;83.40
19567;DHT22;9930;49.240;8.548;2022-12-20T01:46:47;6.40;83.40
19567;DHT22;9930;49.240;8.548;2022-12-20T01:51:49;6.40;83.50
19567;DHT22;9930;49.240;8.548;2022-12-20T01:54:25;6.40;83.50
19567;DHT22;9930;49.240;8.548;2022-12-20T01:57:02;6.40;83.50
19567;DHT22;9930;49.240;8.548;2022-12-20T01:59:34;6.40;83.40
19567;DHT22;9930;49.240;8.548;2022-12-20T02:02:05;6.40;83.30
19567;DHT22;9930;49.240;8.548;2022-12-20T02:04:43;6.40;83.30
19567;DHT22;9930;49.240;8.548;2022-12-20T02:07:14;6.40;83.30
19567;DHT22;9930;49.240;8.548;2022-12-20T02:09:48;6.40;83.30
19567;DHT22;9930;49.240;8.548;2022-12-20T02:12:19;6.40;83.30
19567;DHT22;9930;49.240;8.548;2022-12-20T02:17:37;6.40;83.30
19567;DHT22;9930;49.240;8.548;2022-12-20T02:20:46;6.40;83.50
19567;DHT22;9930;49.240;8.548;2022-12-20T02:27:16;6.40;83.50
19567;DHT22;9930;49.240;8.548;2022-12-20T02:33:03;6.30;83.50
19567;DHT22;9930;49.240;8.548;2022-12-20T02:35:34;6.30;83.60
19567;DHT22;9930;49.240;8.548;2022-12-20T02:43:55;6.30;83.50
19567;DHT22;9930;49.240;8.548;2022-12-20T02:46:46;6.30;83.50
19567;DHT22;9930;49.240;8.548;2022-12-20T02:49:17;6.30;83.60
19567;DHT22;9930;49.240;8.548;2022-12-20T02:51:49;6.30;83.60
19567;DHT22;9930;49.240;8.548;2022-12-20T02:54:22;6.30;83.60
19567;DHT22;9930;49.240;8.548;2022-12-20T02:57:00;6.30;83.70
19567;DHT22;9930;49.240;8.548;2022-12-20T03:00:02;6.30;83.60
19567;DHT22;9930;49.240;8.548;2022-12-20T03:02:29;6.30;83.80
19567;DHT22;9930;49.240;8.548;2022-12-20T03:05:17;6.30;83.70
19567;DHT22;9930;49.240;8.548;2022-12-20T03:07:46;6.30;83.70
19567;DHT22;9930;49.240;8.548;2022-12-20T03:10:15;6.30;83.80
19567;DHT22;9930;49.240;8.548;2022-12-20T03:12:43;6.30;83.80
19567;DHT22;9930;49.240;8.548;2022-12-20T03:15:15;6.30;83.80
19567;DHT22;9930;49.240;8.548;2022-12-20T03:17:44;6.30;83.80
19567;DHT22;9930;49.240;8.548;2022-12-20T03:20:13;6.30;83.80
19567;DHT22;9930;49.240;8.548;2022-12-20T03:22:46;6.30;83.80
19567;DHT22;9930;49.240;8.548;2022-12-20T03:25:14;6.30;83.80
19567;DHT22;9930;49.240;8.548;2022-12-20T03:27:40;6.30;83.80
19567;DHT22;9930;49.240;8.548;2022-12-20T03:30:14;6.30;83.80
19567;DHT22;9930;49.240;8.548;2022-12-20T03:32:46;6.30;83.90
19567;DHT22;9930;49.240;8.548;2022-12-20T03:35:15;6.30;84.00
19567;DHT22;9930;49.240;8.548;2022-12-20T03:37:43;6.30;83.90
19567;DHT22;9930;49.240;8.548;2022-12-20T03:40:16;6.30;83.90
19567;DHT22;9930;49.240;8.548;2022-12-20T03:42:48;6.30;83.80
19567;DHT22;9930;49.240;8.548;2022-12-20T03:45:13;6.30;83.80
19567;DHT22;9930;49.240;8.548;2022-12-20T03:47:43;6.30;83.70
19567;DHT22;9930;49.240;8.548;2022-12-20T03:50:13;6.30;83.80
19567;DHT22;9930;49.240;8.548;2022-12-20T03:52:49;6.30;83.80
19567;DHT22;9930;49.240;8.548;2022-12-20T03:55:17;6.20;83.90
19567;DHT22;9930;49.240;8.548;2022-12-20T03:57:45;6.20;83.90
19567;DHT22;9930;49.240;8.548;2022-12-20T04:00:17;6.20;83.90
19567;DHT22;9930;49.240;8.548;2022-12-20T04:02:51;6.20;84.00
19567;DHT22;9930;49.240;8.548;2022-12-20T04:05:17;6.20;84.00
19567;DHT22;9930;49.240;8.548;2022-12-20T04:07:42;6.20;84.00
19567;DHT22;9930;49.240;8.548;2022-12-20T04:10:13;6.20;84.00
19567;DHT22;9930;49.240;8.548;2022-12-20T04:12:45;6.20;84.00
19567;DHT22;9930;49.240;8.548;2022-12-20T04:15:19;6.20;84.20
19567;DHT22;9930;49.240;8.548;2022-12-20T04:17:45;6.20;84.30
19567;DHT22;9930;49.240;8.548;2022-12-20T04:20:16;6.20;84.30
19567;DHT22;9930;49.240;8.548;2022-12-20T04:22:46;6.20;84.40
19567;DHT22;9930;49.240;8.548;2022-12-20T04:25:14;6.20;84.30
19567;DHT22;9930;49.240;8.548;2022-12-20T04:27:47;6.20;84.30
19567;DHT22;9930;49.240;8.548;2022-12-20T04:30:17;6.20;84.40
19567;DHT22;9930;49.240;8.548;2022-12-20T04:32:43;6.30;84.40
19567;DHT22;9930;49.240;8.548;2022-12-20T04:35:14;6.30;84.30
19567;DHT22;9930;49.240;8.548;2022-12-20T04:37:45;6.30;84.30
19567;DHT22;9930;49.240;8.548;2022-12-20T04:40:13;6.30;84.40
19567;DHT22;9930;49.240;8.548;2022-12-20T04:42:44;6.30;84.40
19567;DHT22;9930;49.240;8.548;2022-12-20T04:45:13;6.30;84.50
19567;DHT22;9930;49.240;8.548;2022-12-20T04:47:43;6.30;84.50
19567;DHT22;9930;49.240;8.548;2022-12-20T04:50:13;6.30;84.50
19567;DHT22;9930;49.240;8.548;2022-12-20T04:52:45;6.30;84.50
19567;DHT22;9930;49.240;8.548;2022-12-20T04:55:30;6.30;84.50
19567;DHT22;9930;49.240;8.548;2022-12-20T04:58:00;6.30;84.50
19567;DHT22;9930;49.240;8.548;2022-12-20T05:00:28;6.30;84.50
19567;DHT22;9930;49.240;8.548;2022-12-20T05:02:54;6.30;84.50
19567;DHT22;9930;49.240;8.548;2022-12-20T05:05:20;6.40;84.50
19567;DHT22;9930;49.240;8.548;2022-12-20T05:07:45;6.30;84.50
19567;DHT22;9930;49.240;8.548;2022-12-20T05:10:11;6.30;84.50
19567;DHT22;9930;49.240;8.548;2022-12-20T05:12:40;6.30;84.40
19567;DHT22;9930;49.240;8.548;2022-12-20T05:15:06;6.30;84.40
19567;DHT22;9930;49.240;8.548;2022-12-20T05:17:35;6.30;84.40
19567;DHT22;9930;49.240;8.548;2022-12-20T05:20:01;6.40;84.50
19567;DHT22;9930;49.240;8.548;2022-12-20T05:22:29;6.40;84.50
19567;DHT22;9930;49.240;8.548;2022-12-20T05:25:16;6.40;84.60
19567;DHT22;9930;49.240;8.548;2022-12-20T05:28:01;6.40;84.50
19567;DHT22;9930;49.240;8.548;2022-12-20T05:30:27;6.40;84.50
19567;DHT22;9930;49.240;8.548;2022-12-20T05:32:55;6.40;84.60
19567;DHT22;9930;49.240;8.548;2022-12-20T05:35:21;6.40;84.70
19567;DHT22;9930;49.240;8.548;2022-12-20T05:37:50;6.40;84.60
19567;DHT22;9930;49.240;8.548;2022-12-20T05:40:15;6.40;84.80
19567;DHT22;9930;49.240;8.548;2022-12-20T05:42:46;6.40;84.80
19567;DHT22;9930;49.240;8.548;2022-12-20T05:45:20;6.50;85.00
19567;DHT22;9930;49.240;8.548;2022-12-20T05:47:48;6.40;85.10
19567;DHT22;9930;49.240;8.548;2022-12-20T05:50:14;6.40;85.00
19567;DHT22;9930;49.240;8.548;2022-12-20T05:52:44;6.50;85.00
19567;DHT22;9930;49.240;8.548;2022-12-20T05:55:13;6.50;85.00
19567;DHT22;9930;49.240;8.548;2022-12-20T05:57:45;6.50;85.00
19567;DHT22;9930;49.240;8.548;2022-12-20T06:00:15;6.50;85.00
19567;DHT22;9930;49.240;8.548;2022-12-20T06:02:45;6.50;85.00
19567;DHT22;9930;49.240;8.548;2022-12-20T06:05:13;6.50;85.10
19567;DHT22;9930;49.240;8.548;2022-12-20T06:07:44;6.50;85.10
19567;DHT22;9930;49.240;8.548;2022-12-20T06:10:13;6.50;85.10
19567;DHT22;9930;49.240;8.548;2022-12-20T06:12:44;6.50;85.10
19567;DHT22;9930;49.240;8.548;2022-12-20T06:15:16;6.50;85.20
19567;DHT22;9930;49.240;8.548;2022-12-20T06:17:43;6.50;85.30
19567;DHT22;9930;49.240;8.548;2022-12-20T06:20:10;6.60;85.50
19567;DHT22;9930;49.240;8.548;2022-12-20T06:22:44;6.60;85.40
19567;DHT22;9930;49.240;8.548;2022-12-20T06:25:17;6.60;85.50
19567;DHT22;9930;49.240;8.548;2022-12-20T06:27:43;6.60;85.50
19567;DHT22;9930;49.240;8.548;2022-12-20T06:30:15;6.60;85.40
19567;DHT22;9930;49.240;8.548;2022-12-20T06:32:44;6.60;85.50
19567;DHT22;9930;49.240;8.548;2022-12-20T06:35:13;6.70;85.50
19567;DHT22;9930;49.240;8.548;2022-12-20T06:37:43;6.70;85.50
19567;DHT22;9930;49.240;8.548;2022-12-20T06:40:14;6.70;85.50
19567;DHT22;9930;49.240;8.548;2022-12-20T06:42:40;6.70;85.50
19567;DHT22;9930;49.240;8.548;2022-12-20T06:45:07;6.70;85.40
19567;DHT22;9930;49.240;8.548;2022-12-20T06:47:42;6.70;85.50
19567;DHT22;9930;49.240;8.548;2022-12-20T06:50:10;6.80;85.60
19567;DHT22;9930;49.240;8.548;2022-12-20T06:52:36;6.80;85.60
19567;DHT22;9930;49.240;8.548;2022-12-20T06:55:05;6.80;85.60
19567;DHT22;9930;49.240;8.548;2022-12-20T06:57:33;6.80;85.50
19567;DHT22;9930;49.240;8.548;2022-12-20T07:00:01;6.80;85.50
19567;DHT22;9930;49.240;8.548;2022-12-20T07:02:27;6.80;85.50
19567;DHT22;9930;49.240;8.548;2022-12-20T07:04:58;6.80;85.50
19567;DHT22;9930;49.240;8.548;2022-12-20T07:07:24;6.80;85.50
19567;DHT22;9930;49.240;8.548;2022-12-20T07:09:53;6.80;85.50
19567;DHT22;9930;49.240;8.548;2022-12-20T07:12:18;6.80;85.50
19567;DHT22;9930;49.240;8.548;2022-12-20T07:14:44;6.90;85.70
19567;DHT22;9930;49.240;8.548;2022-12-20T07:17:13;6.80;85.70
19567;DHT22;9930;49.240;8.548;2022-12-20T07:19:43;6.90;85.70
19567;DHT22;9930;49.240;8.548;2022-12-20T07:22:14;6.80;85.60
19567;DHT22;9930;49.240;8.548;2022-12-20T07:24:42;6.90;85.60
19567;DHT22;9930;49.240;8.548;2022-12-20T07:27:11;6.90;85.60
19567;DHT22;9930;49.240;8.548;2022-12-20T07:29:39;6.90;85.50
19567;DHT22;9930;49.240;8.548;2022-12-20T07:32:12;6.90;85.50
19567;DHT22;9930;49.240;8.548;2022-12-20T07:34:43;6.90;85.70
19567;DHT22;9930;49.240;8.548;2022-12-20T07:37:13;6.90;85.60
19567;DHT22;9930;49.240;8.548;2022-12-20T07:39:46;6.90;85.50
19567;DHT22;9930;49.240;8.548;2022-12-20T07:42:13;7.00;85.50
19567;DHT22;9930;49.240;8.548;2022-12-20T07:44:43;6.90;85.50
19567;DHT22;9930;49.240;8.548;2022-12-20T07:47:13;6.90;85.50
19567;DHT22;9930;49.240;8.548;2022-12-20T07:49:42;7.00;85.60
19567;DHT22;9930;49.240;8.548;2022-12-20T07:52:13;7.00;85.60
19567;DHT22;9930;49.240;8.548;2022-12-20T07:54:45;7.00;85.60
19567;DHT22;9930;49.240;8.548;2022-12-20T07:57:21;7.00;85.60
19567;DHT22;9930;49.240;8.548;2022-12-20T07:59:54;7.00;85.60
19567;DHT22;9930;49.240;8.548;2022-12-20T08:02:31;7.00;85.60
19567;DHT22;9930;49.240;8.548;2022-12-20T08:05:03;7.00;85.70
19567;DHT22;9930;49.240;8.548;2022-12-20T08:07:31;7.10;85.80
19567;DHT22;9930;49.240;8.548;2022-12-20T08:10:00;7.10;85.90
19567;DHT22;9930;49.240;8.548;2022-12-20T08:12:28;7.10;85.80
19567;DHT22;9930;49.240;8.548;2022-12-20T08:14:57;7.10;85.70
19567;DHT22;9930;49.240;8.548;2022-12-20T08:17:24;7.10;85.70
19567;DHT22;9930;49.240;8.548;2022-12-20T08:19:50;7.10;85.70
19567;DHT22;9930;49.240;8.548;2022-12-20T08:22:19;7.10;85.70
19567;DHT22;9930;49.240;8.548;2022-12-20T08:24:45;7.20;85.80
19567;DHT22;9930;49.240;8.548;2022-12-20T08:27:13;7.20;85.80
19567;DHT22;9930;49.240;8.548;2022-12-20T08:29:40;7.20;85.90
19567;DHT22;9930;49.240;8.548;2022-12-20T08:32:06;7.20;85.90
19567;DHT22;9930;49.240;8.548;2022-12-20T08:34:32;7.30;86.00
19567;DHT22;9930;49.240;8.548;2022-12-20T08:36:58;7.30;86.00
19567;DHT22;9930;49.240;8.548;2022-12-20T08:39:24;7.30;85.90
19567;DHT22;9930;49.240;8.548;2022-12-20T08:41:52;7.30;85.90
19567;DHT22;9930;49.240;8.548;2022-12-20T08:44:18;7.30;86.00
19567;DHT22;9930;49.240;8.548;2022-12-20T08:46:46;7.40;86.10
19567;DHT22;9930;49.240;8.548;2022-12-20T08:49:12;7.40;86.00
19567;DHT22;9930;49.240;8.548;2022-12-20T08:51:38;7.40;86.00
19567;DHT22;9930;49.240;8.548;2022-12-20T08:54:06;7.40;85.80
19567;DHT22;9930;49.240;8.548;2022-12-20T08:56:32;7.50;85.90
19567;DHT22;9930;49.240;8.548;2022-12-20T08:59:00;7.50;86.00
19567;DHT22;9930;49.240;8.548;2022-12-20T09:01:26;7.50;86.00
19567;DHT22;9930;49.240;8.548;2022-12-20T09:03:54;7.50;86.00
19567;DHT22;9930;49.240;8.548;2022-12-20T09:06:22;7.50;86.00
19567;DHT22;9930;49.240;8.548;2022-12-20T09:08:48;7.50;86.00
19567;DHT22;9930;49.240;8.548;2022-12-20T09:11:15;7.60;86.10
19567;DHT22;9930;49.240;8.548;2022-12-20T09:13:44;7.60;86.10
19567;DHT22;9930;49.240;8.548;2022-12-20T09:16:13;7.60;86.20
19567;DHT22;9930;49.240;8.548;2022-12-20T09:18:47;7.70;86.20
19567;DHT22;9930;49.240;8.548;2022-12-20T09:21:19;7.70;86.30
19567;DHT22;9930;49.240;8.548;2022-12-20T09:23:49;7.80;86.40
19567;DHT22;9930;49.240;8.548;2022-12-20T09:26:17;7.80;86.40
19567;DHT22;9930;49.240;8.548;2022-12-20T09:28:44;7.80;86.40
19567;DHT22;9930;49.240;8.548;2022-12-20T09:31:24;7.90;86.60
19567;DHT22;9930;49.240;8.548;2022-12-20T09:33:54;7.90;86.30
19567;DHT22;9930;49.240;8.548;2022-12-20T09:36:25;8.00;86.40
19567;DHT22;9930;49.240;8.548;2022-12-20T09:38:55;8.00;86.40
19567;DHT22;9930;49.240;8.548;2022-12-20T09:41:31;8.10;86.40
19567;DHT22;9930;49.240;8.548;2022-12-20T09:44:04;8.10;86.40
19567;DHT22;9930;49.240;8.548;2022-12-20T09:46:40;8.10;86.40
19567;DHT22;9930;49.240;8.548;2022-12-20T09:49:14;8.20;86.30
19567;DHT22;9930;49.240;8.548;2022-12-20T09:52:10;8.20;86.20
19567;DHT22;9930;49.240;8.548;2022-12-20T09:57:33;8.30;86.20
19567;DHT22;9930;49.240;8.548;2022-12-20T10:00:25;8.30;86.20
19567;DHT22;9930;49.240;8.548;2022-12-20T10:02:53;8.40;86.20
19567;DHT22;9930;49.240;8.548;2022-12-20T10:05:32;8.40;86.20
19567;DHT22;9930;49.240;8.548;2022-12-20T10:08:23;8.40;86.00
19567;DHT22;9930;49.240;8.548;2022-12-20T10:10:55;8.50;86.10
19567;DHT22;9930;49.240;8.548;2022-12-20T10:13:46;8.50;86.10
19567;DHT22;9930;49.240;8.548;2022-12-20T10:16:34;8.50;85.90
19567;DHT22;9930;49.240;8.548;2022-12-20T10:19:37;8.60;86.00
19567;DHT22;9930;49.240;8.548;2022-12-20T10:22:38;8.60;85.90
19567;DHT22;9930;49.240;8.548;2022-12-20T10:25:30;8.60;85.80
19567;DHT22;9930;49.240;8.548;2022-12-20T10:28:00;8.70;85.90
19567;DHT22;9930;49.240;8.548;2022-12-20T10:30:32;8.70;85.80
19567;DHT22;9930;49.240;8.548;2022-12-20T10:33:00;8.70;85.70
19567;DHT22;9930;49.240;8.548;2022-12-20T10:35:27;8.80;85.80
19567;DHT22;9930;49.240;8.548;2022-12-20T10:38:06;8.80;85.70
19567;DHT22;9930;49.240;8.548;2022-12-20T10:43:16;8.80;85.70
19567;DHT22;9930;49.240;8.548;2022-12-20T10:45:55;8.80;85.70
19567;DHT22;9930;49.240;8.548;2022-12-20T10:48:34;8.80;85.70
19567;DHT22;9930;49.240;8.548;2022-12-20T10:54:02;8.90;85.50
19567;DHT22;9930;49.240;8.548;2022-12-20T10:56:55;8.90;85.50
19567;DHT22;9930;49.240;8.548;2022-12-20T10:59:36;8.90;85.50
19567;DHT22;9930;49.240;8.548;2022-12-20T11:02:37;8.90;85.40
19567;DHT22;9930;49.240;8.548;2022-12-20T11:10:24;8.90;85.40
19567;DHT22;9930;49.240;8.548;2022-12-20T11:12:57;9.00;85.50
19567;DHT22;9930;49.240;8.548;2022-12-20T11:15:33;9.00;85.50
19567;DHT22;9930;49.240;8.548;2022-12-20T11:18:07;9.00;85.60
19567;DHT22;9930;49.240;8.548;2022-12-20T11:20:53;9.00;85.60
19567;DHT22;9930;49.240;8.548;2022-12-20T11:23:35;9.00;85.50
19567;DHT22;9930;49.240;8.548;2022-12-20T11:52:49;9.20;85.90
19567;DHT22;9930;49.240;8.548;2022-12-20T11:55:38;9.30;86.00
19567;DHT22;9930;49.240;8.548;2022-12-20T11:58:17;9.30;86.00
19567;DHT22;9930;49.240;8.548;2022-12-20T12:01:04;9.30;85.90
19567;DHT22;9930;49.240;8.548;2022-12-20T12:03:34;9.30;85.90
19567;DHT22;9930;49.240;8.548;2022-12-20T12:06:08;9.30;85.90
19567;DHT22;9930;49.240;8.548;2022-12-20T12:09:15;9.30;86.60
19567;DHT22;9930;49.240;8.548;2022-12-20T12:12:02;9.30;85.90
19567;DHT22;9930;49.240;8.548;2022-12-20T12:14:49;9.40;85.90
19567;DHT22;9930;49.240;8.548;2022-12-20T12:23:22;9.40;86.00
19567;DHT22;9930;49.240;8.548;2022-12-20T12:25:54;9.40;85.90
19567;DHT22;9930;49.240;8.548;2022-12-20T12:28:21;9.50;86.00
19567;DHT22;9930;49.240;8.548;2022-12-20T12:31:00;9.50;85.90
19567;DHT22;9930;49.240;8.548;2022-12-20T12:33:39;9.50;85.80
19567;DHT22;9930;49.240;8.548;2022-12-20T12:43:33;9.50;85.50
19567;DHT22;9930;49.240;8.548;2022-12-20T12:45:57;9.50;85.60
19567;DHT22;9930;49.240;8.548;2022-12-20T12:48:45;9.60;85.70
19567;DHT22;9930;49.240;8.548;2022-12-20T12:51:24;9.60;85.70
19567;DHT22;9930;49.240;8.548;2022-12-20T12:54:03;9.50;85.60
19567;DHT22;9930;49.240;8.548;2022-12-20T12:56:44;9.60;85.70
19567;DHT22;9930;49.240;8.548;2022-12-20T13:10:04;9.70;85.70
19567;DHT22;9930;49.240;8.548;2022-12-20T13:13:00;9.70;85.50
19567;DHT22;9930;49.240;8.548;2022-12-20T13:15:48;9.70;85.50
19567;DHT22;9930;49.240;8.548;2022-12-20T13:18:16;9.70;85.50
19567;DHT22;9930;49.240;8.548;2022-12-20T13:21:16;9.80;85.60
19567;DHT22;9930;49.240;8.548;2022-12-20T13:46:51;9.70;85.10
19567;DHT22;9930;49.240;8.548;2022-12-20T13:49:32;9.70;85.10
19567;DHT22;9930;49.240;8.548;2022-12-20T13:55:26;9.70;85.20
19567;DHT22;9930;49.240;8.548;2022-12-20T14:01:14;9.70;85.30
19567;DHT22;9930;49.240;8.548;2022-12-20T14:03:41;9.70;85.30
19567;DHT22;9930;49.240;8.548;2022-12-20T14:06:12;9.80;85.30
19567;DHT22;9930;49.240;8.548;2022-12-20T14:08:48;9.70;85.10
19567;DHT22;9930;49.240;8.548;2022-12-20T14:11:24;9.70;85.00
19567;DHT22;9930;49.240;8.548;2022-12-20T14:14:02;9.70;84.90
19567;DHT22;9930;49.240;8.548;2022-12-20T14:16:51;9.70;85.00
19567;DHT22;9930;49.240;8.548;2022-12-20T14:19:17;9.70;85.00
19567;DHT22;9930;49.240;8.548;2022-12-20T14:21:45;9.70;85.00
19567;DHT22;9930;49.240;8.548;2022-12-20T14:24:17;9.70;85.10
19567;DHT22;9930;49.240;8.548;2022-12-20T14:26:47;9.70;85.00
19567;DHT22;9930;49.240;8.548;2022-12-20T14:29:28;9.70;85.00
19567;DHT22;9930;49.240;8.548;2022-12-20T14:31:55;9.70;85.00
19567;DHT22;9930;49.240;8.548;2022-12-20T14:34:29;9.70;85.00
19567;DHT22;9930;49.240;8.548;2022-12-20T14:37:33;9.70;85.00
19567;DHT22;9930;49.240;8.548;2022-12-20T14:40:18;9.70;85.10
19567;DHT22;9930;49.240;8.548;2022-12-20T14:42:46;9.70;85.00
19567;DHT22;9930;49.240;8.548;2022-12-20T14:45:18;9.70;85.10
19567;DHT22;9930;49.240;8.548;2022-12-20T14:48:15;9.70;85.10
19567;DHT22;9930;49.240;8.548;2022-12-20T14:50:51;9.70;85.10
19567;DHT22;9930;49.240;8.548;2022-12-20T14:56:28;9.70;85.10
19567;DHT22;9930;49.240;8.548;2022-12-20T14:59:14;9.70;85.10
19567;DHT22;9930;49.240;8.548;2022-12-20T15:01:43;9.60;85.00
19567;DHT22;9930;49.240;8.548;2022-12-20T15:04:34;9.60;85.00
19567;DHT22;9930;49.240;8.548;2022-12-20T15:07:01;9.60;85.00
19567;DHT22;9930;49.240;8.548;2022-12-20T15:09:29;9.60;85.00
19567;DHT22;9930;49.240;8.548;2022-12-20T15:11:57;9.60;85.00
19567;DHT22;9930;49.240;8.548;2022-12-20T15:14:33;9.60;85.00
19567;DHT22;9930;49.240;8.548;2022-12-20T15:17:09;9.60;85.10
19567;DHT22;9930;49.240;8.548;2022-12-20T15:19:39;9.50;85.00
19567;DHT22;9930;49.240;8.548;2022-12-20T15:22:16;9.50;85.10
19567;DHT22;9930;49.240;8.548;2022-12-20T15:24:46;9.50;85.10
19567;DHT22;9930;49.240;8.548;2022-12-20T15:27:13;9.50;85.10
19567;DHT22;9930;49.240;8.548;2022-12-20T15:29:41;9.50;85.10
19567;DHT22;9930;49.240;8.548;2022-12-20T15:32:20;9.50;85.10
19567;DHT22;9930;49.240;8.548;2022-12-20T15:34:50;9.50;85.90
19567;DHT22;9930;49.240;8.548;2022-12-20T15:37:18;9.50;85.10
19567;DHT22;9930;49.240;8.548;2022-12-20T15:43:54;9.40;85.10
19567;DHT22;9930;49.240;8.548;2022-12-20T15:46:22;9.40;85.20
19567;DHT22;9930;49.240;8.548;2022-12-20T15:48:48;9.40;85.10
19567;DHT22;9930;49.240;8.548;2022-12-20T15:51:20;9.40;85.20
19567;DHT22;9930;49.240;8.548;2022-12-20T15:53:51;9.40;85.20
19567;DHT22;9930;49.240;8.548;2022-12-20T15:56:20;9.40;85.30
19567;DHT22;9930;49.240;8.548;2022-12-20T15:58:48;9.30;85.20
19567;DHT22;9930;49.240;8.548;2022-12-20T16:01:24;9.30;85.20
19567;DHT22;9930;49.240;8.548;2022-12-20T16:03:53;9.30;85.30
19567;DHT22;9930;49.240;8.548;2022-12-20T16:06:21;9.30;85.30
19567;DHT22;9930;49.240;8.548;2022-12-20T16:08:47;9.30;85.40
19567;DHT22;9930;49.240;8.548;2022-12-20T16:11:23;9.30;85.40
19567;DHT22;9930;49.240;8.548;2022-12-20T16:13:49;9.30;85.40
19567;DHT22;9930;49.240;8.548;2022-12-20T16:16:18;9.30;85.40
19567;DHT22;9930;49.240;8.548;2022-12-20T16:18:51;9.30;85.40
19567;DHT22;9930;49.240;8.548;2022-12-20T16:21:24;9.30;85.50
19567;DHT22;9930;49.240;8.548;2022-12-20T16:23:55;9.30;85.50
19567;DHT22;9930;49.240;8.548;2022-12-20T16:26:22;9.20;85.50
19567;DHT22;9930;49.240;8.548;2022-12-20T16:28:51;9.20;85.50
19567;DHT22;9930;49.240;8.548;2022-12-20T16:31:33;9.30;85.60
19567;DHT22;9930;49.240;8.548;2022-12-20T16:34:02;9.20;85.70
19567;DHT22;9930;49.240;8.548;2022-12-20T16:36:42;9.20;86.40
19567;DHT22;9930;49.240;8.548;2022-12-20T16:39:11;9.30;85.70
19567;DHT22;9930;49.240;8.548;2022-12-20T16:41:43;9.30;85.70
19567;DHT22;9930;49.240;8.548;2022-12-20T16:44:14;9.30;85.70
19567;DHT22;9930;49.240;8.548;2022-12-20T16:46:43;9.30;85.60
19567;DHT22;9930;49.240;8.548;2022-12-20T16:49:13;9.30;85.50
19567;DHT22;9930;49.240;8.548;2022-12-20T16:51:44;9.30;85.50
19567;DHT22;9930;49.240;8.548;2022-12-20T16:54:21;9.30;85.70
19567;DHT22;9930;49.240;8.548;2022-12-20T16:56:51;9.30;85.70
19567;DHT22;9930;49.240;8.548;2022-12-20T16:59:23;9.30;85.60
19567;DHT22;9930;49.240;8.548;2022-12-20T17:01:53;9.30;85.50
19567;DHT22;9930;49.240;8.548;2022-12-20T17:04:20;9.30;85.60
19567;DHT22;9930;49.240;8.548;2022-12-20T17:06:47;9.30;85.60
19567;DHT22;9930;49.240;8.548;2022-12-20T17:09:17;9.30;85.60
19567;DHT22;9930;49.240;8.548;2022-12-20T17:11:46;9.30;85.60
19567;DHT22;9930;49.240;8.548;2022-12-20T17:14:14;9.30;85.60
19567;DHT22;9930;49.240;8.548;2022-12-20T17:16:46;9.30;85.70
19567;DHT22;9930;49.240;8.548;2022-12-20T17:19:13;9.20;85.50
19567;DHT22;9930;49.240;8.548;2022-12-20T17:21:44;9.20;85.60
19567;DHT22;9930;49.240;8.548;2022-12-20T17:24:18;9.30;85.70
19567;DHT22;9930;49.240;8.548;2022-12-20T17:26:45;9.20;86.30
19567;DHT22;9930;49.240;8.548;2022-12-20T17:29:12;9.30;85.60
19567;DHT22;9930;49.240;8.548;2022-12-20T17:31:44;9.30;85.60
19567;DHT22;9930;49.240;8.548;2022-12-20T17:34:18;9.30;85.60
19567;DHT22;9930;49.240;8.548;2022-12-20T17:36:45;9.30;85.60
19567;DHT22;9930;49.240;8.548;2022-12-20T17:39:13;9.30;85.70
19567;DHT22;9930;49.240;8.548;2022-12-20T17:41:43;9.30;85.70
19567;DHT22;9930;49.240;8.548;2022-12-20T17:44:18;9.30;85.70
19567;DHT22;9930;49.240;8.548;2022-12-20T17:46:50;9.20;85.60
19567;DHT22;9930;49.240;8.548;2022-12-20T17:49:19;9.20;85.60
19567;DHT22;9930;49.240;8.548;2022-12-20T17:51:45;9.20;85.60
19567;DHT22;9930;49.240;8.548;2022-12-20T17:54:17;9.20;85.60
19567;DHT22;9930;49.240;8.548;2022-12-20T17:56:47;9.20;85.70
19567;DHT22;9930;49.240;8.548;2022-12-20T17:59:17;9.20;85.70
19567;DHT22;9930;49.240;8.548;2022-12-20T18:01:44;9.30;85.70
19567;DHT22;9930;49.240;8.548;2022-12-20T18:04:14;9.30;85.70
19567;DHT22;9930;49.240;8.548;2022-12-20T18:06:44;9.30;85.70
19567;DHT22;9930;49.240;8.548;2022-12-20T18:09:18;9.30;85.70
19567;DHT22;9930;49.240;8.548;2022-12-20T18:11:46;9.30;85.70
19567;DHT22;9930;49.240;8.548;2022-12-20T18:14:14;9.30;85.70
19567;DHT22;9930;49.240;8.548;2022-12-20T18:16:48;9.30;85.70
19567;DHT22;9930;49.240;8.548;2022-12-20T18:19:18;9.30;85.80
19567;DHT22;9930;49.240;8.548;2022-12-20T18:21:46;9.30;85.70
19567;DHT22;9930;49.240;8.548;2022-12-20T18:24:14;9.30;85.70
19567;DHT22;9930;49.240;8.548;2022-12-20T18:26:45;9.30;85.70
19567;DHT22;9930;49.240;8.548;2022-12-20T18:29:13;9.30;85.70
19567;DHT22;9930;49.240;8.548;2022-12-20T18:31:43;9.30;85.70
19567;DHT22;9930;49.240;8.548;2022-12-20T18:34:13;9.30;85.70
19567;DHT22;9930;49.240;8.548;2022-12-20T18:36:48;9.30;85.70